sensor_id;sensor_type;location;lat;lon;timestamp;noise_LAeq;noise_LA_min;noise_LA_max;noise_LA01;noise_LA95
66274;Laerm;58450;52.150;4.466;2023-04-24T00:02:21;50.75;45.46;64.05;;
66274;Laerm;58450;52.150;4.466;2023-04-24T00:04:49;49.71;44.49;61.39;;
66274;Laerm;58450;52.150;4.466;2023-04-24T00:07:16;49.22;43.80;62.92;;
66274;Laerm;58450;52.150;4.466;2023-04-24T00:09:46;50.29;44.38;63.93;;
66274;Laerm;58450;52.150;4.466;2023-04-24T00:12:14;51.79;45.98;71.59;;
66274;Laerm;58450;52.150;4.466;2023-04-24T00:14:42;52.74;46.14;64.12;;
66274;Laerm;58450;52.150;4.466;2023-04-24T00:17:09;51.90;46.07;69.88;;
66274;Laerm;58450;52.150;4.466;2023-04-24T00:19:37;51.55;46.40;63.09;;
66274;Laerm;58450;52.150;4.466;2023-04-24T00:22:05;51.57;46.74;61.55;;
66274;Laerm;58450;52.150;4.466;2023-04-24T00:24:32;51.03;45.67;68.07;;
66274;Laerm;58450;52.150;4.466;2023-04-24T00:27:00;53.36;46.10;66.95;;
66274;Laerm;58450;52.150;4.466;2023-04-24T00:29:30;50.57;45.69;61.07;;
66274;Laerm;58450;52.150;4.466;2023-04-24T00:31:57;49.84;44.19;60.20;;
66274;Laerm;58450;52.150;4.466;2023-04-24T00:34:25;49.25;44.35;62.25;;
66274;Laerm;58450;52.150;4.466;2023-04-24T00:36:52;48.60;42.81;62.74;;
66274;Laerm;58450;52.150;4.466;2023-04-24T00:39:21;48.42;43.66;59.87;;
66274;Laerm;58450;52.150;4.466;2023-04-24T00:41:49;48.57;43.60;62.00;;
66274;Laerm;58450;52.150;4.466;2023-04-24T00:44:18;51.00;42.65;64.21;;
66274;Laerm;58450;52.150;4.466;2023-04-24T00:46:48;51.81;43.02;72.25;;
66274;Laerm;58450;52.150;4.466;2023-04-24T00:49:21;48.58;43.01;62.38;;
66274;Laerm;58450;52.150;4.466;2023-04-24T00:51:49;47.63;42.93;60.53;;
66274;Laerm;58450;52.150;4.466;2023-04-24T00:54:17;47.70;43.19;59.46;;
66274;Laerm;58450;52.150;4.466;2023-04-24T00:56:46;51.23;42.85;74.31;;
66274;Laerm;58450;52.150;4.466;2023-04-24T00:59:16;47.84;43.44;56.31;;
66274;Laerm;58450;52.150;4.466;2023-04-24T01:01:44;48.22;43.40;59.67;;
66274;Laerm;58450;52.150;4.466;2023-04-24T01:04:14;48.33;42.37;58.05;;
66274;Laerm;58450;52.150;4.466;2023-04-24T01:06:44;48.90;44.04;71.86;;
66274;Laerm;58450;52.150;4.466;2023-04-24T01:09:13;48.43;43.28;61.28;;
66274;Laerm;58450;52.150;4.466;2023-04-24T01:11:41;48.28;42.88;58.41;;
66274;Laerm;58450;52.150;4.466;2023-04-24T01:14:09;48.21;42.60;59.39;;
66274;Laerm;58450;52.150;4.466;2023-04-24T01:16:37;47.88;42.66;60.28;;
66274;Laerm;58450;52.150;4.466;2023-04-24T01:19:06;47.00;42.06;63.52;;
66274;Laerm;58450;52.150;4.466;2023-04-24T01:21:37;50.71;40.97;75.09;;
66274;Laerm;58450;52.150;4.466;2023-04-24T01:24:07;48.32;39.68;73.67;;
66274;Laerm;58450;52.150;4.466;2023-04-24T01:26:34;49.40;41.87;64.52;;
66274;Laerm;58450;52.150;4.466;2023-04-24T01:29:02;46.14;41.20;61.89;;
66274;Laerm;58450;52.150;4.466;2023-04-24T01:31:30;46.30;40.91;56.54;;
66274;Laerm;58450;52.150;4.466;2023-04-24T01:33:58;46.62;40.64;61.45;;
66274;Laerm;58450;52.150;4.466;2023-04-24T01:36:28;46.07;40.92;60.64;;
66274;Laerm;58450;52.150;4.466;2023-04-24T01:38:56;46.86;41.72;60.27;;
66274;Laerm;58450;52.150;4.466;2023-04-24T01:41:25;48.35;42.14;61.49;;
66274;Laerm;58450;52.150;4.466;2023-04-24T01:43:53;48.19;42.15;58.94;;
66274;Laerm;58450;52.150;4.466;2023-04-24T01:46:21;47.90;42.83;60.45;;
66274;Laerm;58450;52.150;4.466;2023-04-24T01:48:49;48.58;43.18;60.45;;
66274;Laerm;58450;52.150;4.466;2023-04-24T01:51:17;48.67;42.81;60.44;;
66274;Laerm;58450;52.150;4.466;2023-04-24T01:53:44;48.50;42.93;60.76;;
66274;Laerm;58450;52.150;4.466;2023-04-24T01:56:12;47.63;42.27;63.52;;
66274;Laerm;58450;52.150;4.466;2023-04-24T01:58:43;47.29;42.57;59.24;;
66274;Laerm;58450;52.150;4.466;2023-04-24T02:01:17;46.98;41.22;57.65;;
66274;Laerm;58450;52.150;4.466;2023-04-24T02:03:45;47.46;42.28;58.21;;
66274;Laerm;58450;52.150;4.466;2023-04-24T02:06:12;47.90;42.16;60.03;;
66274;Laerm;58450;52.150;4.466;2023-04-24T02:08:40;48.76;43.63;60.63;;
66274;Laerm;58450;52.150;4.466;2023-04-24T02:11:09;49.07;42.69;63.15;;
66274;Laerm;58450;52.150;4.466;2023-04-24T02:13:36;49.29;43.11;61.84;;
66274;Laerm;58450;52.150;4.466;2023-04-24T02:16:05;48.57;43.31;63.02;;
66274;Laerm;58450;52.150;4.466;2023-04-24T02:18:33;49.57;43.63;65.56;;
66274;Laerm;58450;52.150;4.466;2023-04-24T02:21:00;49.33;43.20;61.21;;
66274;Laerm;58450;52.150;4.466;2023-04-24T02:23:28;48.69;42.65;59.92;;
66274;Laerm;58450;52.150;4.466;2023-04-24T02:25:55;48.91;43.27;58.85;;
66274;Laerm;58450;52.150;4.466;2023-04-24T02:28:23;50.25;41.89;62.95;;
66274;Laerm;58450;52.150;4.466;2023-04-24T02:30:50;48.95;42.91;60.45;;
66274;Laerm;58450;52.150;4.466;2023-04-24T02:33:19;49.45;43.12;62.89;;
66274;Laerm;58450;52.150;4.466;2023-04-24T02:35:47;48.97;42.20;60.00;;
66274;Laerm;58450;52.150;4.466;2023-04-24T02:38:14;48.37;42.63;59.23;;
66274;Laerm;58450;52.150;4.466;2023-04-24T02:40:41;49.07;42.40;61.35;;
66274;Laerm;58450;52.150;4.466;2023-04-24T02:43:09;49.49;42.27;63.56;;
66274;Laerm;58450;52.150;4.466;2023-04-24T02:45:36;47.22;41.93;60.85;;
66274;Laerm;58450;52.150;4.466;2023-04-24T02:48:04;48.88;42.04;68.54;;
66274;Laerm;58450;52.150;4.466;2023-04-24T02:50:33;47.50;42.08;62.91;;
66274;Laerm;58450;52.150;4.466;2023-04-24T02:53:01;51.70;43.12;71.57;;
66274;Laerm;58450;52.150;4.466;2023-04-24T02:55:28;49.14;42.55;66.56;;
66274;Laerm;58450;52.150;4.466;2023-04-24T02:57:56;47.70;41.50;61.31;;
66274;Laerm;58450;52.150;4.466;2023-04-24T03:00:24;46.27;41.22;59.34;;
66274;Laerm;58450;52.150;4.466;2023-04-24T03:02:51;46.58;41.37;59.76;;
66274;Laerm;58450;52.150;4.466;2023-04-24T03:05:19;47.09;41.39;60.49;;
66274;Laerm;58450;52.150;4.466;2023-04-24T03:07:48;49.05;43.37;60.42;;
66274;Laerm;58450;52.150;4.466;2023-04-24T03:10:15;48.46;42.73;61.13;;
66274;Laerm;58450;52.150;4.466;2023-04-24T03:12:43;49.83;44.32;60.99;;
66274;Laerm;58450;52.150;4.466;2023-04-24T03:15:11;48.80;42.86;63.43;;
66274;Laerm;58450;52.150;4.466;2023-04-24T03:17:38;48.04;42.86;57.95;;
66274;Laerm;58450;52.150;4.466;2023-04-24T03:20:08;47.92;42.80;59.61;;
66274;Laerm;58450;52.150;4.466;2023-04-24T03:22:36;47.92;42.09;56.62;;
66274;Laerm;58450;52.150;4.466;2023-04-24T03:25:06;46.73;41.13;59.54;;
66274;Laerm;58450;52.150;4.466;2023-04-24T03:27:35;50.89;41.16;63.14;;
66274;Laerm;58450;52.150;4.466;2023-04-24T03:30:04;47.28;41.28;66.11;;
66274;Laerm;58450;52.150;4.466;2023-04-24T03:32:32;47.44;40.91;63.28;;
66274;Laerm;58450;52.150;4.466;2023-04-24T03:34:59;49.19;40.74;70.20;;
66274;Laerm;58450;52.150;4.466;2023-04-24T03:37:27;57.82;40.65;79.36;;
66274;Laerm;58450;52.150;4.466;2023-04-24T03:39:54;56.74;41.30;78.81;;
66274;Laerm;58450;52.150;4.466;2023-04-24T03:42:23;51.59;41.09;74.67;;
66274;Laerm;58450;52.150;4.466;2023-04-24T03:44:51;51.22;41.70;67.83;;
66274;Laerm;58450;52.150;4.466;2023-04-24T03:47:18;50.59;42.05;68.92;;
66274;Laerm;58450;52.150;4.466;2023-04-24T03:49:46;50.46;43.33;65.56;;
66274;Laerm;58450;52.150;4.466;2023-04-24T03:52:13;51.41;45.01;64.42;;
66274;Laerm;58450;52.150;4.466;2023-04-24T03:54:41;50.17;43.82;59.66;;
66274;Laerm;58450;52.150;4.466;2023-04-24T03:57:08;50.64;44.32;60.72;;
66274;Laerm;58450;52.150;4.466;2023-04-24T03:59:37;52.95;44.51;63.16;;
66274;Laerm;58450;52.150;4.466;2023-04-24T04:02:04;54.22;45.83;62.31;;
66274;Laerm;58450;52.150;4.466;2023-04-24T04:04:32;50.81;44.99;60.14;;
66274;Laerm;58450;52.150;4.466;2023-04-24T04:06:59;50.92;44.39;62.93;;
66274;Laerm;58450;52.150;4.466;2023-04-24T04:09:29;52.52;45.20;69.14;;
66274;Laerm;58450;52.150;4.466;2023-04-24T04:11:56;50.15;44.48;67.85;;
66274;Laerm;58450;52.150;4.466;2023-04-24T04:14:24;55.13;46.87;67.42;;
66274;Laerm;58450;52.150;4.466;2023-04-24T04:16:53;52.31;46.22;67.05;;
66274;Laerm;58450;52.150;4.466;2023-04-24T04:19:20;54.99;47.89;66.49;;
66274;Laerm;58450;52.150;4.466;2023-04-24T04:21:48;52.73;45.78;71.77;;
66274;Laerm;58450;52.150;4.466;2023-04-24T04:24:19;57.41;47.45;74.39;;
66274;Laerm;58450;52.150;4.466;2023-04-24T04:26:48;54.04;46.67;72.67;;
66274;Laerm;58450;52.150;4.466;2023-04-24T04:29:17;52.33;47.25;61.48;;
66274;Laerm;58450;52.150;4.466;2023-04-24T04:31:45;53.39;46.60;64.90;;
66274;Laerm;58450;52.150;4.466;2023-04-24T04:34:14;54.55;47.50;65.33;;
66274;Laerm;58450;52.150;4.466;2023-04-24T04:36:41;53.86;46.97;65.91;;
66274;Laerm;58450;52.150;4.466;2023-04-24T04:39:10;57.12;48.71;68.78;;
66274;Laerm;58450;52.150;4.466;2023-04-24T04:41:37;55.02;50.03;67.44;;
66274;Laerm;58450;52.150;4.466;2023-04-24T04:44:06;56.85;48.69;67.43;;
66274;Laerm;58450;52.150;4.466;2023-04-24T04:46:35;53.12;47.58;61.74;;
66274;Laerm;58450;52.150;4.466;2023-04-24T04:49:04;55.83;48.66;69.62;;
66274;Laerm;58450;52.150;4.466;2023-04-24T04:51:34;59.44;50.18;81.61;;
66274;Laerm;58450;52.150;4.466;2023-04-24T04:54:01;55.39;50.63;64.64;;
66274;Laerm;58450;52.150;4.466;2023-04-24T04:56:29;62.90;50.00;77.09;;
66274;Laerm;58450;52.150;4.466;2023-04-24T04:58:56;65.24;51.87;80.60;;
66274;Laerm;58450;52.150;4.466;2023-04-24T05:01:25;56.91;49.35;68.69;;
66274;Laerm;58450;52.150;4.466;2023-04-24T05:03:53;55.98;49.88;66.16;;
66274;Laerm;58450;52.150;4.466;2023-04-24T05:06:21;56.23;50.40;74.19;;
66274;Laerm;58450;52.150;4.466;2023-04-24T05:08:49;57.28;51.47;74.47;;
66274;Laerm;58450;52.150;4.466;2023-04-24T05:11:17;54.51;49.69;60.97;;
66274;Laerm;58450;52.150;4.466;2023-04-24T05:13:44;57.93;50.48;74.26;;
66274;Laerm;58450;52.150;4.466;2023-04-24T05:16:12;56.18;49.29;65.73;;
66274;Laerm;58450;52.150;4.466;2023-04-24T05:18:39;58.31;50.06;72.41;;
66274;Laerm;58450;52.150;4.466;2023-04-24T05:21:07;56.10;49.80;68.53;;
66274;Laerm;58450;52.150;4.466;2023-04-24T05:23:34;55.82;49.57;71.60;;
66274;Laerm;58450;52.150;4.466;2023-04-24T05:26:03;60.21;51.16;76.69;;
66274;Laerm;58450;52.150;4.466;2023-04-24T05:28:31;60.59;54.12;69.04;;
66274;Laerm;58450;52.150;4.466;2023-04-24T05:30:58;62.50;56.52;71.22;;
66274;Laerm;58450;52.150;4.466;2023-04-24T05:33:27;63.01;56.86;71.16;;
66274;Laerm;58450;52.150;4.466;2023-04-24T05:35:54;62.61;52.22;80.09;;
66274;Laerm;58450;52.150;4.466;2023-04-24T05:38:22;56.73;50.89;69.27;;
66274;Laerm;58450;52.150;4.466;2023-04-24T05:40:49;58.01;51.18;67.01;;
66274;Laerm;58450;52.150;4.466;2023-04-24T05:43:18;55.93;51.18;67.71;;
66274;Laerm;58450;52.150;4.466;2023-04-24T05:45:46;59.17;49.03;69.64;;
66274;Laerm;58450;52.150;4.466;2023-04-24T05:48:13;56.66;49.48;66.25;;
66274;Laerm;58450;52.150;4.466;2023-04-24T05:50:41;54.88;50.10;68.90;;
66274;Laerm;58450;52.150;4.466;2023-04-24T05:53:08;58.43;49.65;76.62;;
66274;Laerm;58450;52.150;4.466;2023-04-24T05:55:37;55.58;50.11;66.34;;
66274;Laerm;58450;52.150;4.466;2023-04-24T05:58:04;54.52;50.15;64.46;;
66274;Laerm;58450;52.150;4.466;2023-04-24T06:00:34;56.27;51.07;66.42;;
66274;Laerm;58450;52.150;4.466;2023-04-24T06:03:01;55.44;49.65;68.80;;
66274;Laerm;58450;52.150;4.466;2023-04-24T06:05:29;56.06;50.87;65.27;;
66274;Laerm;58450;52.150;4.466;2023-04-24T06:07:57;60.59;54.10;68.84;;
66274;Laerm;58450;52.150;4.466;2023-04-24T06:10:24;60.82;55.92;68.08;;
66274;Laerm;58450;52.150;4.466;2023-04-24T06:12:52;61.78;56.75;68.91;;
66274;Laerm;58450;52.150;4.466;2023-04-24T06:15:22;60.24;50.98;73.79;;
66274;Laerm;58450;52.150;4.466;2023-04-24T06:17:51;60.18;52.00;72.03;;
66274;Laerm;58450;52.150;4.466;2023-04-24T06:20:18;57.66;52.58;70.87;;
66274;Laerm;58450;52.150;4.466;2023-04-24T06:22:46;57.42;52.36;68.63;;
66274;Laerm;58450;52.150;4.466;2023-04-24T06:25:13;59.66;52.19;79.46;;
66274;Laerm;58450;52.150;4.466;2023-04-24T06:27:41;57.04;52.21;71.64;;
66274;Laerm;58450;52.150;4.466;2023-04-24T06:30:09;59.17;50.90;75.02;;
66274;Laerm;58450;52.150;4.466;2023-04-24T06:32:37;56.98;50.23;69.35;;
66274;Laerm;58450;52.150;4.466;2023-04-24T06:35:07;55.77;49.88;65.97;;
66274;Laerm;58450;52.150;4.466;2023-04-24T06:37:36;59.85;51.38;70.29;;
66274;Laerm;58450;52.150;4.466;2023-04-24T06:40:05;61.50;55.52;68.33;;
66274;Laerm;58450;52.150;4.466;2023-04-24T06:42:32;60.62;52.85;68.80;;
66274;Laerm;58450;52.150;4.466;2023-04-24T06:45:02;60.51;51.97;73.35;;
66274;Laerm;58450;52.150;4.466;2023-04-24T06:47:29;56.84;50.82;70.64;;
66274;Laerm;58450;52.150;4.466;2023-04-24T06:49:57;58.28;52.15;73.00;;
66274;Laerm;58450;52.150;4.466;2023-04-24T06:52:26;59.59;52.11;77.17;;
66274;Laerm;58450;52.150;4.466;2023-04-24T06:55:00;59.16;52.85;77.74;;
66274;Laerm;58450;52.150;4.466;2023-04-24T06:57:28;55.93;49.26;66.38;;
66274;Laerm;58450;52.150;4.466;2023-04-24T06:59:56;56.78;49.54;65.97;;
66274;Laerm;58450;52.150;4.466;2023-04-24T07:02:24;57.74;50.92;68.52;;
66274;Laerm;58450;52.150;4.466;2023-04-24T07:04:51;56.84;51.20;68.86;;
66274;Laerm;58450;52.150;4.466;2023-04-24T07:07:19;55.31;49.87;68.02;;
66274;Laerm;58450;52.150;4.466;2023-04-24T07:09:48;59.46;50.46;67.67;;
66274;Laerm;58450;52.150;4.466;2023-04-24T07:12:16;62.49;56.25;70.22;;
66274;Laerm;58450;52.150;4.466;2023-04-24T07:14:46;62.60;56.12;73.88;;
66274;Laerm;58450;52.150;4.466;2023-04-24T07:17:14;61.83;51.73;70.31;;
66274;Laerm;58450;52.150;4.466;2023-04-24T07:19:42;57.29;48.90;68.62;;
66274;Laerm;58450;52.150;4.466;2023-04-24T07:22:09;60.88;50.79;70.73;;
66274;Laerm;58450;52.150;4.466;2023-04-24T07:24:42;57.82;50.26;70.77;;
66274;Laerm;58450;52.150;4.466;2023-04-24T07:27:11;56.35;50.56;67.19;;
66274;Laerm;58450;52.150;4.466;2023-04-24T07:29:40;58.23;51.13;70.51;;
66274;Laerm;58450;52.150;4.466;2023-04-24T07:32:08;56.99;50.61;74.33;;
66274;Laerm;58450;52.150;4.466;2023-04-24T07:34:36;56.65;50.27;68.66;;
66274;Laerm;58450;52.150;4.466;2023-04-24T07:37:04;56.76;50.39;72.79;;
66274;Laerm;58450;52.150;4.466;2023-04-24T07:39:31;56.57;50.93;66.37;;
66274;Laerm;58450;52.150;4.466;2023-04-24T07:41:59;55.39;49.03;70.52;;
66274;Laerm;58450;52.150;4.466;2023-04-24T07:44:29;61.78;50.60;75.91;;
66274;Laerm;58450;52.150;4.466;2023-04-24T07:46:56;55.51;49.46;68.02;;
66274;Laerm;58450;52.150;4.466;2023-04-24T07:49:24;54.61;49.12;64.56;;
66274;Laerm;58450;52.150;4.466;2023-04-24T07:51:51;56.01;49.72;72.38;;
66274;Laerm;58450;52.150;4.466;2023-04-24T07:54:19;57.63;49.76;70.23;;
66274;Laerm;58450;52.150;4.466;2023-04-24T07:56:46;57.84;50.43;71.93;;
66274;Laerm;58450;52.150;4.466;2023-04-24T07:59:14;61.04;50.79;84.56;;
66274;Laerm;58450;52.150;4.466;2023-04-24T08:01:42;57.86;49.87;72.59;;
66274;Laerm;58450;52.150;4.466;2023-04-24T08:04:10;57.43;49.50;69.24;;
66274;Laerm;58450;52.150;4.466;2023-04-24T08:06:37;54.77;49.18;67.24;;
66274;Laerm;58450;52.150;4.466;2023-04-24T08:09:05;53.42;48.06;70.38;;
66274;Laerm;58450;52.150;4.466;2023-04-24T08:11:32;58.33;50.09;72.37;;
66274;Laerm;58450;52.150;4.466;2023-04-24T08:14:00;57.66;48.84;70.83;;
66274;Laerm;58450;52.150;4.466;2023-04-24T08:16:27;56.83;48.29;70.19;;
66274;Laerm;58450;52.150;4.466;2023-04-24T08:18:56;56.65;49.38;67.73;;
66274;Laerm;58450;52.150;4.466;2023-04-24T08:21:24;59.62;49.49;81.85;;
66274;Laerm;58450;52.150;4.466;2023-04-24T08:23:53;60.29;55.07;69.68;;
66274;Laerm;58450;52.150;4.466;2023-04-24T08:26:20;59.80;53.12;67.36;;
66274;Laerm;58450;52.150;4.466;2023-04-24T08:28:48;62.35;54.65;70.57;;
66274;Laerm;58450;52.150;4.466;2023-04-24T08:31:15;58.91;48.00;73.86;;
66274;Laerm;58450;52.150;4.466;2023-04-24T08:33:43;58.41;50.77;70.04;;
66274;Laerm;58450;52.150;4.466;2023-04-24T08:36:13;56.59;51.32;70.11;;
66274;Laerm;58450;52.150;4.466;2023-04-24T08:38:42;56.67;51.06;70.39;;
66274;Laerm;58450;52.150;4.466;2023-04-24T08:41:10;56.92;50.42;73.86;;
66274;Laerm;58450;52.150;4.466;2023-04-24T08:43:39;58.93;50.14;76.75;;
66274;Laerm;58450;52.150;4.466;2023-04-24T08:46:07;54.53;49.54;69.19;;
66274;Laerm;58450;52.150;4.466;2023-04-24T08:48:36;58.16;49.08;71.90;;
66274;Laerm;58450;52.150;4.466;2023-04-24T08:51:07;57.90;49.87;77.78;;
66274;Laerm;58450;52.150;4.466;2023-04-24T08:53:37;56.63;51.13;69.75;;
66274;Laerm;58450;52.150;4.466;2023-04-24T08:56:05;56.48;49.64;71.08;;
66274;Laerm;58450;52.150;4.466;2023-04-24T08:58:33;57.27;51.03;78.56;;
66274;Laerm;58450;52.150;4.466;2023-04-24T09:01:03;61.73;51.57;82.44;;
66274;Laerm;58450;52.150;4.466;2023-04-24T09:03:33;57.44;51.15;70.60;;
66274;Laerm;58450;52.150;4.466;2023-04-24T09:06:02;59.30;52.38;81.82;;
66274;Laerm;58450;52.150;4.466;2023-04-24T09:08:31;60.86;55.24;71.58;;
66274;Laerm;58450;52.150;4.466;2023-04-24T09:11:00;59.29;52.99;66.87;;
66274;Laerm;58450;52.150;4.466;2023-04-24T09:13:30;59.94;51.62;75.61;;
66274;Laerm;58450;52.150;4.466;2023-04-24T09:15:59;56.37;49.73;68.43;;
66274;Laerm;58450;52.150;4.466;2023-04-24T09:18:27;58.20;50.53;67.85;;
66274;Laerm;58450;52.150;4.466;2023-04-24T09:20:58;58.51;49.93;71.92;;
66274;Laerm;58450;52.150;4.466;2023-04-24T09:23:28;57.29;50.17;74.97;;
66274;Laerm;58450;52.150;4.466;2023-04-24T09:25:57;57.48;51.46;69.27;;
66274;Laerm;58450;52.150;4.466;2023-04-24T09:28:32;55.51;49.24;65.41;;
66274;Laerm;58450;52.150;4.466;2023-04-24T09:31:05;54.46;49.20;67.13;;
66274;Laerm;58450;52.150;4.466;2023-04-24T09:33:33;54.68;47.94;65.79;;
66274;Laerm;58450;52.150;4.466;2023-04-24T09:36:01;56.33;50.03;66.72;;
66274;Laerm;58450;52.150;4.466;2023-04-24T09:38:34;57.33;51.15;68.91;;
66274;Laerm;58450;52.150;4.466;2023-04-24T09:41:03;58.58;51.68;77.56;;
66274;Laerm;58450;52.150;4.466;2023-04-24T09:43:34;59.94;50.79;70.74;;
66274;Laerm;58450;52.150;4.466;2023-04-24T09:46:06;62.40;56.65;72.67;;
66274;Laerm;58450;52.150;4.466;2023-04-24T09:48:37;62.28;55.14;71.95;;
66274;Laerm;58450;52.150;4.466;2023-04-24T09:51:07;59.68;51.93;75.32;;
66274;Laerm;58450;52.150;4.466;2023-04-24T09:53:36;57.89;50.55;68.61;;
66274;Laerm;58450;52.150;4.466;2023-04-24T09:56:07;56.95;49.75;78.40;;
66274;Laerm;58450;52.150;4.466;2023-04-24T09:58:37;56.28;50.63;70.41;;
66274;Laerm;58450;52.150;4.466;2023-04-24T10:01:04;55.75;50.55;68.88;;
66274;Laerm;58450;52.150;4.466;2023-04-24T10:03:33;56.75;49.92;73.10;;
66274;Laerm;58450;52.150;4.466;2023-04-24T10:06:02;53.31;48.74;64.47;;
66274;Laerm;58450;52.150;4.466;2023-04-24T10:08:36;57.50;48.28;71.79;;
66274;Laerm;58450;52.150;4.466;2023-04-24T10:11:04;59.79;48.26;76.06;;
66274;Laerm;58450;52.150;4.466;2023-04-24T10:13:32;55.09;47.97;66.22;;
66274;Laerm;58450;52.150;4.466;2023-04-24T10:16:04;61.29;46.57;79.33;;
66274;Laerm;58450;52.150;4.466;2023-04-24T10:18:32;59.23;49.94;74.55;;
66274;Laerm;58450;52.150;4.466;2023-04-24T10:21:01;62.65;53.45;78.71;;
66274;Laerm;58450;52.150;4.466;2023-04-24T10:23:30;62.97;54.32;76.76;;
66274;Laerm;58450;52.150;4.466;2023-04-24T10:26:00;65.26;56.62;75.73;;
66274;Laerm;58450;52.150;4.466;2023-04-24T10:28:30;61.78;49.24;77.31;;
66274;Laerm;58450;52.150;4.466;2023-04-24T10:31:00;56.69;49.16;68.13;;
66274;Laerm;58450;52.150;4.466;2023-04-24T10:33:30;61.90;51.87;79.23;;
66274;Laerm;58450;52.150;4.466;2023-04-24T10:35:59;57.47;52.07;67.89;;
66274;Laerm;58450;52.150;4.466;2023-04-24T10:38:29;58.69;49.55;75.47;;
66274;Laerm;58450;52.150;4.466;2023-04-24T10:41:07;57.41;49.61;73.17;;
66274;Laerm;58450;52.150;4.466;2023-04-24T10:43:35;61.36;50.66;78.16;;
66274;Laerm;58450;52.150;4.466;2023-04-24T10:46:05;60.94;51.09;82.88;;
66274;Laerm;58450;52.150;4.466;2023-04-24T10:48:34;62.85;54.92;69.41;;
66274;Laerm;58450;52.150;4.466;2023-04-24T10:51:02;60.88;52.99;71.17;;
66274;Laerm;58450;52.150;4.466;2023-04-24T10:53:30;61.93;47.79;68.60;;
66274;Laerm;58450;52.150;4.466;2023-04-24T10:56:03;54.08;47.52;64.22;;
66274;Laerm;58450;52.150;4.466;2023-04-24T10:58:40;54.95;48.16;71.76;;
66274;Laerm;58450;52.150;4.466;2023-04-24T11:01:24;54.01;47.59;68.05;;
66274;Laerm;58450;52.150;4.466;2023-04-24T11:03:58;52.23;46.60;65.57;;
66274;Laerm;58450;52.150;4.466;2023-04-24T11:06:29;53.78;46.58;70.64;;
66274;Laerm;58450;52.150;4.466;2023-04-24T11:09:03;58.72;49.38;76.74;;
66274;Laerm;58450;52.150;4.466;2023-04-24T11:11:33;60.62;47.40;77.33;;
66274;Laerm;58450;52.150;4.466;2023-04-24T11:14:09;58.15;47.69;70.47;;
66274;Laerm;58450;52.150;4.466;2023-04-24T11:16:42;59.28;49.22;72.01;;
66274;Laerm;58450;52.150;4.466;2023-04-24T11:19:21;58.31;49.45;73.91;;
66274;Laerm;58450;52.150;4.466;2023-04-24T11:21:58;61.48;49.74;78.16;;
66274;Laerm;58450;52.150;4.466;2023-04-24T11:24:36;58.69;48.64;76.52;;
66274;Laerm;58450;52.150;4.466;2023-04-24T11:27:13;55.30;48.72;71.90;;
66274;Laerm;58450;52.150;4.466;2023-04-24T11:29:44;57.30;47.63;74.92;;
66274;Laerm;58450;52.150;4.466;2023-04-24T11:32:24;59.24;48.58;77.53;;
66274;Laerm;58450;52.150;4.466;2023-04-24T11:34:55;58.30;49.60;76.55;;
66274;Laerm;58450;52.150;4.466;2023-04-24T11:37:25;60.55;49.72;78.84;;
66274;Laerm;58450;52.150;4.466;2023-04-24T11:39:55;61.28;53.39;78.09;;
66274;Laerm;58450;52.150;4.466;2023-04-24T11:42:23;60.51;54.22;80.02;;
66274;Laerm;58450;52.150;4.466;2023-04-24T11:44:53;63.52;56.28;81.41;;
66274;Laerm;58450;52.150;4.466;2023-04-24T11:47:28;61.70;49.30;78.66;;
66274;Laerm;58450;52.150;4.466;2023-04-24T11:49:58;59.80;51.18;72.93;;
66274;Laerm;58450;52.150;4.466;2023-04-24T11:52:26;57.22;51.09;73.17;;
66274;Laerm;58450;52.150;4.466;2023-04-24T11:54:53;57.41;50.94;67.88;;
66274;Laerm;58450;52.150;4.466;2023-04-24T11:57:22;58.88;51.78;72.31;;
66274;Laerm;58450;52.150;4.466;2023-04-24T11:59:52;57.13;51.42;70.58;;
66274;Laerm;58450;52.150;4.466;2023-04-24T12:02:22;57.13;50.14;74.63;;
66274;Laerm;58450;52.150;4.466;2023-04-24T12:04:50;56.29;50.68;74.39;;
66274;Laerm;58450;52.150;4.466;2023-04-24T12:07:19;56.38;49.56;71.20;;
66274;Laerm;58450;52.150;4.466;2023-04-24T12:09:49;60.85;54.07;78.03;;
66274;Laerm;58450;52.150;4.466;2023-04-24T12:12:17;62.78;56.38;72.54;;
66274;Laerm;58450;52.150;4.466;2023-04-24T12:14:50;63.08;52.57;71.32;;
66274;Laerm;58450;52.150;4.466;2023-04-24T12:17:25;64.60;53.88;78.14;;
66274;Laerm;58450;52.150;4.466;2023-04-24T12:19:58;59.08;52.30;74.03;;
66274;Laerm;58450;52.150;4.466;2023-04-24T12:22:43;62.44;54.57;78.88;;
66274;Laerm;58450;52.150;4.466;2023-04-24T12:25:12;60.86;53.50;75.30;;
66274;Laerm;58450;52.150;4.466;2023-04-24T12:27:40;57.61;51.89;68.96;;
66274;Laerm;58450;52.150;4.466;2023-04-24T12:30:13;59.96;53.54;76.95;;
66274;Laerm;58450;52.150;4.466;2023-04-24T12:32:42;58.45;53.50;78.18;;
66274;Laerm;58450;52.150;4.466;2023-04-24T12:35:10;59.90;53.02;71.03;;
66274;Laerm;58450;52.150;4.466;2023-04-24T12:37:42;59.00;52.30;78.23;;
66274;Laerm;58450;52.150;4.466;2023-04-24T12:40:12;61.32;52.89;74.03;;
66274;Laerm;58450;52.150;4.466;2023-04-24T12:42:43;61.67;54.57;73.98;;
66274;Laerm;58450;52.150;4.466;2023-04-24T12:45:11;62.77;57.22;70.55;;
66274;Laerm;58450;52.150;4.466;2023-04-24T12:47:41;63.09;55.73;74.46;;
66274;Laerm;58450;52.150;4.466;2023-04-24T12:50:10;62.07;53.04;73.52;;
66274;Laerm;58450;52.150;4.466;2023-04-24T12:52:40;57.59;51.41;68.16;;
66274;Laerm;58450;52.150;4.466;2023-04-24T12:55:08;60.76;52.71;72.85;;
66274;Laerm;58450;52.150;4.466;2023-04-24T12:57:38;59.12;53.64;71.27;;
66274;Laerm;58450;52.150;4.466;2023-04-24T13:00:08;60.39;52.88;76.52;;
66274;Laerm;58450;52.150;4.466;2023-04-24T13:02:36;57.40;52.09;71.28;;
66274;Laerm;58450;52.150;4.466;2023-04-24T13:05:05;57.50;50.99;73.99;;
66274;Laerm;58450;52.150;4.466;2023-04-24T13:07:33;58.74;50.98;73.13;;
66274;Laerm;58450;52.150;4.466;2023-04-24T13:10:02;56.65;49.97;70.13;;
66274;Laerm;58450;52.150;4.466;2023-04-24T13:12:29;58.13;50.48;72.26;;
66274;Laerm;58450;52.150;4.466;2023-04-24T13:14:58;55.67;49.71;71.97;;
66274;Laerm;58450;52.150;4.466;2023-04-24T13:17:25;56.36;49.05;70.14;;
66274;Laerm;58450;52.150;4.466;2023-04-24T13:19:54;58.52;49.14;71.87;;
66274;Laerm;58450;52.150;4.466;2023-04-24T13:22:22;57.39;49.11;68.40;;
66274;Laerm;58450;52.150;4.466;2023-04-24T13:24:49;58.08;49.36;71.34;;
66274;Laerm;58450;52.150;4.466;2023-04-24T13:27:19;58.18;49.15;75.26;;
66274;Laerm;58450;52.150;4.466;2023-04-24T13:29:46;61.10;49.84;80.57;;
66274;Laerm;58450;52.150;4.466;2023-04-24T13:32:14;58.64;50.71;75.73;;
66274;Laerm;58450;52.150;4.466;2023-04-24T13:34:41;58.15;51.30;75.53;;
66274;Laerm;58450;52.150;4.466;2023-04-24T13:37:09;57.99;49.44;75.67;;
66274;Laerm;58450;52.150;4.466;2023-04-24T13:39:37;55.63;49.06;69.87;;
66274;Laerm;58450;52.150;4.466;2023-04-24T13:42:04;58.32;49.46;73.78;;
66274;Laerm;58450;52.150;4.466;2023-04-24T13:44:33;56.35;47.43;71.49;;
66274;Laerm;58450;52.150;4.466;2023-04-24T13:47:00;55.79;48.50;67.80;;
66274;Laerm;58450;52.150;4.466;2023-04-24T13:49:28;58.90;49.44;75.09;;
66274;Laerm;58450;52.150;4.466;2023-04-24T13:51:56;56.55;49.88;74.32;;
66274;Laerm;58450;52.150;4.466;2023-04-24T13:54:23;63.30;49.75;86.78;;